sensor_id;sensor_type;location;lat;lon;timestamp;pressure;altitude;pressure_sealevel;temperature;humidity
48517;BME280;34310;51.904;4.256;2023-06-22T00:00:23;102050.00;;;25.93;48.38
48517;BME280;34310;51.904;4.256;2023-06-22T00:02:50;102049.94;;;25.92;48.48
48517;BME280;34310;51.904;4.256;2023-06-22T00:05:18;102043.75;;;25.91;48.60
48517;BME280;34310;51.904;4.256;2023-06-22T00:07:45;102037.56;;;25.91;48.64
48517;BME280;34310;51.904;4.256;2023-06-22T00:10:12;102035.78;;;25.90;48.64
48517;BME280;34310;51.904;4.256;2023-06-22T00:12:40;102039.31;;;25.90;48.70
48517;BME280;34310;51.904;4.256;2023-06-22T00:15:08;102038.38;;;25.88;48.74
48517;BME280;34310;51.904;4.256;2023-06-22T00:17:36;102031.34;;;25.89;48.66
48517;BME280;34310;51.904;4.256;2023-06-22T00:20:03;102034.84;;;25.88;48.82
48517;BME280;34310;51.904;4.256;2023-06-22T00:22:33;102018.06;;;25.87;48.65
48517;BME280;34310;51.904;4.256;2023-06-22T00:25:07;102027.75;;;25.87;48.80
48517;BME280;34310;51.904;4.256;2023-06-22T00:27:35;102018.94;;;25.86;49.01
48517;BME280;34310;51.904;4.256;2023-06-22T00:30:03;102024.19;;;25.85;48.61
48517;BME280;34310;51.904;4.256;2023-06-22T00:32:30;102025.97;;;25.86;48.80
48517;BME280;34310;51.904;4.256;2023-06-22T00:34:58;102021.50;;;25.83;48.76
48517;BME280;34310;51.904;4.256;2023-06-22T00:37:25;102017.09;;;25.84;48.76
48517;BME280;34310;51.904;4.256;2023-06-22T00:39:52;102014.41;;;25.82;49.00
48517;BME280;34310;51.904;4.256;2023-06-22T00:42:20;102020.59;;;25.83;49.03
48517;BME280;34310;51.904;4.256;2023-06-22T00:44:48;102013.53;;;25.82;48.82
48517;BME280;34310;51.904;4.256;2023-06-22T00:47:17;102017.03;;;25.81;48.75
48517;BME280;34310;51.904;4.256;2023-06-22T00:49:44;102016.13;;;25.80;48.81
48517;BME280;34310;51.904;4.256;2023-06-22T00:52:13;102007.28;;;25.80;48.97
48517;BME280;34310;51.904;4.256;2023-06-22T00:54:51;102001.97;;;25.78;48.84
48517;BME280;34310;51.904;4.256;2023-06-22T00:57:19;102012.53;;;25.78;49.13
48517;BME280;34310;51.904;4.256;2023-06-22T00:59:48;102004.59;;;25.78;48.86
48517;BME280;34310;51.904;4.256;2023-06-22T01:02:15;102004.59;;;25.78;49.06
48517;BME280;34310;51.904;4.256;2023-06-22T01:04:43;102004.56;;;25.77;49.12
48517;BME280;34310;51.904;4.256;2023-06-22T01:07:49;102002.78;;;25.76;48.82
48517;BME280;34310;51.904;4.256;2023-06-22T01:10:38;102005.38;;;25.74;49.03
48517;BME280;34310;51.904;4.256;2023-06-22T01:18:26;102006.16;;;25.72;49.13
48517;BME280;34310;51.904;4.256;2023-06-22T01:20:56;102002.59;;;25.70;49.15
48517;BME280;34310;51.904;4.256;2023-06-22T01:26:24;102000.78;;;25.69;49.20
48517;BME280;34310;51.904;4.256;2023-06-22T01:28:56;101993.72;;;25.68;49.34
48517;BME280;34310;51.904;4.256;2023-06-22T01:31:26;101986.63;;;25.67;49.37
48517;BME280;34310;51.904;4.256;2023-06-22T01:33:57;101992.81;;;25.67;49.23
48517;BME280;34310;51.904;4.256;2023-06-22T01:36:26;102000.69;;;25.66;49.36
48517;BME280;34310;51.904;4.256;2023-06-22T01:38:54;101999.78;;;25.65;49.40
48517;BME280;34310;51.904;4.256;2023-06-22T01:41:26;101997.09;;;25.63;49.36
48517;BME280;34310;51.904;4.256;2023-06-22T01:43:55;102004.13;;;25.63;49.28
48517;BME280;34310;51.904;4.256;2023-06-22T01:46:23;102006.78;;;25.63;49.33
48517;BME280;34310;51.904;4.256;2023-06-22T01:48:51;102013.81;;;25.62;49.38
48517;BME280;34310;51.904;4.256;2023-06-22T01:51:19;102009.34;;;25.60;49.33
48517;BME280;34310;51.904;4.256;2023-06-22T01:53:46;102006.69;;;25.60;49.57
48517;BME280;34310;51.904;4.256;2023-06-22T01:56:17;102005.81;;;25.59;49.54
48517;BME280;34310;51.904;4.256;2023-06-22T02:01:33;102001.34;;;25.57;49.59
48517;BME280;34310;51.904;4.256;2023-06-22T02:04:08;101995.19;;;25.58;49.34
48517;BME280;34310;51.904;4.256;2023-06-22T02:06:42;102002.22;;;25.57;49.47
48517;BME280;34310;51.904;4.256;2023-06-22T02:09:14;102000.44;;;25.56;49.53
48517;BME280;34310;51.904;4.256;2023-06-22T02:11:45;102003.03;;;25.55;49.67
48517;BME280;34310;51.904;4.256;2023-06-22T02:14:14;101992.47;;;25.55;49.48
48517;BME280;34310;51.904;4.256;2023-06-22T02:16:46;101988.88;;;25.53;49.51
48517;BME280;34310;51.904;4.256;2023-06-22T02:19:14;101989.72;;;25.52;49.71
48517;BME280;34310;51.904;4.256;2023-06-22T02:21:43;101977.38;;;25.51;49.80
48517;BME280;34310;51.904;4.256;2023-06-22T02:24:10;101987.00;;;25.49;49.60
48517;BME280;34310;51.904;4.256;2023-06-22T02:26:38;101981.72;;;25.49;49.74
48517;BME280;34310;51.904;4.256;2023-06-22T02:29:07;101972.88;;;25.48;49.78
48517;BME280;34310;51.904;4.256;2023-06-22T02:31:34;101972.88;;;25.48;49.65
48517;BME280;34310;51.904;4.256;2023-06-22T02:34:01;101971.09;;;25.47;49.74
48517;BME280;34310;51.904;4.256;2023-06-22T02:36:29;101975.50;;;25.47;49.77
48517;BME280;34310;51.904;4.256;2023-06-22T02:38:58;101974.59;;;25.46;49.76
48517;BME280;34310;51.904;4.256;2023-06-22T02:41:28;101979.84;;;25.45;49.95
48517;BME280;34310;51.904;4.256;2023-06-22T02:43:55;101980.66;;;25.44;50.00
48517;BME280;34310;51.904;4.256;2023-06-22T02:46:23;101991.25;;;25.44;49.93
48517;BME280;34310;51.904;4.256;2023-06-22T02:48:50;101985.91;;;25.42;49.80
48517;BME280;34310;51.904;4.256;2023-06-22T02:51:18;101991.19;;;25.42;50.06
48517;BME280;34310;51.904;4.256;2023-06-22T02:53:45;101985.00;;;25.42;50.06
48517;BME280;34310;51.904;4.256;2023-06-22T02:56:13;101988.50;;;25.41;49.86
48517;BME280;34310;51.904;4.256;2023-06-22T02:58:40;101992.00;;;25.40;50.00
48517;BME280;34310;51.904;4.256;2023-06-22T03:01:07;101991.13;;;25.39;50.02
48517;BME280;34310;51.904;4.256;2023-06-22T03:03:35;101994.63;;;25.38;49.91
48517;BME280;34310;51.904;4.256;2023-06-22T03:06:02;101998.09;;;25.37;49.88
48517;BME280;34310;51.904;4.256;2023-06-22T03:08:30;101983.13;;;25.38;49.92
48517;BME280;34310;51.904;4.256;2023-06-22T03:10:57;101966.34;;;25.36;49.95
48517;BME280;34310;51.904;4.256;2023-06-22T03:13:24;101970.72;;;25.35;50.15
48517;BME280;34310;51.904;4.256;2023-06-22T03:15:52;101966.31;;;25.34;50.20
48517;BME280;34310;51.904;4.256;2023-06-22T03:18:19;101956.56;;;25.33;49.85
48517;BME280;34310;51.904;4.256;2023-06-22T03:20:49;101953.03;;;25.32;50.18
48517;BME280;34310;51.904;4.256;2023-06-22T03:23:16;101959.19;;;25.31;49.99
48517;BME280;34310;51.904;4.256;2023-06-22T03:25:44;101959.13;;;25.30;50.06
48517;BME280;34310;51.904;4.256;2023-06-22T03:28:12;101957.38;;;25.30;50.32
48517;BME280;34310;51.904;4.256;2023-06-22T03:30:39;101952.97;;;25.29;50.00
48517;BME280;34310;51.904;4.256;2023-06-22T03:33:06;101950.28;;;25.28;50.31
48517;BME280;34310;51.904;4.256;2023-06-22T03:35:34;101948.53;;;25.28;50.20
48517;BME280;34310;51.904;4.256;2023-06-22T03:38:01;101956.41;;;25.27;50.27
48517;BME280;34310;51.904;4.256;2023-06-22T03:40:29;101960.81;;;25.26;50.07
48517;BME280;34310;51.904;4.256;2023-06-22T03:42:57;101958.16;;;25.26;50.38
48517;BME280;34310;51.904;4.256;2023-06-22T03:45:24;101949.28;;;25.24;50.28
48517;BME280;34310;51.904;4.256;2023-06-22T03:47:51;101944.00;;;25.24;50.17
48517;BME280;34310;51.904;4.256;2023-06-22T03:50:19;101951.94;;;25.24;50.28
48517;BME280;34310;51.904;4.256;2023-06-22T03:52:47;101951.00;;;25.22;50.43
48517;BME280;34310;51.904;4.256;2023-06-22T03:55:14;101952.75;;;25.22;50.45
48517;BME280;34310;51.904;4.256;2023-06-22T03:57:42;101942.19;;;25.22;50.41
48517;BME280;34310;51.904;4.256;2023-06-22T04:00:10;101932.47;;;25.21;50.46
48517;BME280;34310;51.904;4.256;2023-06-22T04:02:38;101937.69;;;25.19;50.45
48517;BME280;34310;51.904;4.256;2023-06-22T04:05:06;101936.81;;;25.19;50.42
48517;BME280;34310;51.904;4.256;2023-06-22T04:07:33;101938.56;;;25.18;50.48
48517;BME280;34310;51.904;4.256;2023-06-22T04:10:01;101942.03;;;25.17;50.20
48517;BME280;34310;51.904;4.256;2023-06-22T04:12:28;101948.19;;;25.16;50.30
48517;BME280;34310;51.904;4.256;2023-06-22T04:14:55;101936.72;;;25.16;50.41
48517;BME280;34310;51.904;4.256;2023-06-22T04:17:23;101941.94;;;25.14;50.47
48517;BME280;34310;51.904;4.256;2023-06-22T04:19:52;101948.97;;;25.14;50.42
48517;BME280;34310;51.904;4.256;2023-06-22T04:22:19;101947.22;;;25.14;50.30
48517;BME280;34310;51.904;4.256;2023-06-22T04:24:47;101953.34;;;25.13;50.30
48517;BME280;34310;51.904;4.256;2023-06-22T04:27:14;101956.84;;;25.12;50.54
48517;BME280;34310;51.904;4.256;2023-06-22T04:29:41;101953.31;;;25.12;50.32
48517;BME280;34310;51.904;4.256;2023-06-22T04:32:16;101957.75;;;25.13;50.18
48517;BME280;34310;51.904;4.256;2023-06-22T04:34:43;101958.56;;;25.10;50.26
48517;BME280;34310;51.904;4.256;2023-06-22T04:37:11;101953.22;;;25.09;50.60
48517;BME280;34310;51.904;4.256;2023-06-22T04:39:43;101954.06;;;25.08;50.67
48517;BME280;34310;51.904;4.256;2023-06-22T04:49:36;101951.34;;;25.05;50.87
48517;BME280;34310;51.904;4.256;2023-06-22T04:52:06;101952.19;;;25.04;50.80
48517;BME280;34310;51.904;4.256;2023-06-22T04:54:35;101953.06;;;25.02;50.56
48517;BME280;34310;51.904;4.256;2023-06-22T04:57:05;101957.44;;;25.02;50.74
48517;BME280;34310;51.904;4.256;2023-06-22T04:59:38;101957.44;;;25.02;50.82
48517;BME280;34310;51.904;4.256;2023-06-22T05:02:06;101961.84;;;25.01;50.88
48517;BME280;34310;51.904;4.256;2023-06-22T05:04:34;101956.53;;;25.01;50.62
48517;BME280;34310;51.904;4.256;2023-06-22T05:07:03;101963.56;;;25.01;50.76
48517;BME280;34310;51.904;4.256;2023-06-22T05:09:31;101952.97;;;24.99;50.62
48517;BME280;34310;51.904;4.256;2023-06-22T05:12:01;101963.53;;;24.99;50.68
48517;BME280;34310;51.904;4.256;2023-06-22T05:14:30;101952.88;;;24.98;50.91
48517;BME280;34310;51.904;4.256;2023-06-22T05:16:57;101949.34;;;24.97;50.76
48517;BME280;34310;51.904;4.256;2023-06-22T05:19:31;101951.19;;;24.98;50.73
48517;BME280;34310;51.904;4.256;2023-06-22T05:22:01;101948.44;;;24.97;50.74
48517;BME280;34310;51.904;4.256;2023-06-22T05:24:28;101948.44;;;24.97;51.04
48517;BME280;34310;51.904;4.256;2023-06-22T05:26:56;101949.34;;;24.97;50.82
48517;BME280;34310;51.904;4.256;2023-06-22T05:29:23;101944.91;;;24.96;50.75
48517;BME280;34310;51.904;4.256;2023-06-22T05:31:50;101950.19;;;24.96;50.89
48517;BME280;34310;51.904;4.256;2023-06-22T05:34:18;101945.78;;;24.95;50.75
48517;BME280;34310;51.904;4.256;2023-06-22T05:36:45;101946.66;;;24.96;50.94
48517;BME280;34310;51.904;4.256;2023-06-22T05:39:14;101942.22;;;24.95;50.82
48517;BME280;34310;51.904;4.256;2023-06-22T05:41:42;101954.53;;;24.94;50.72
48517;BME280;34310;51.904;4.256;2023-06-22T05:44:12;101957.19;;;24.94;51.04
48517;BME280;34310;51.904;4.256;2023-06-22T05:46:42;101948.38;;;24.94;50.74
48517;BME280;34310;51.904;4.256;2023-06-22T05:49:12;101953.66;;;24.94;50.79
48517;BME280;34310;51.904;4.256;2023-06-22T05:51:41;101943.09;;;24.94;50.94
48517;BME280;34310;51.904;4.256;2023-06-22T05:54:08;101947.47;;;24.93;51.08
48517;BME280;34310;51.904;4.256;2023-06-22T05:56:36;101947.44;;;24.92;50.92
48517;BME280;34310;51.904;4.256;2023-06-22T05:59:03;101953.59;;;24.92;50.82
48517;BME280;34310;51.904;4.256;2023-06-22T06:01:31;101953.59;;;24.92;50.96
48517;BME280;34310;51.904;4.256;2023-06-22T06:04:03;101958.00;;;24.92;50.82
48517;BME280;34310;51.904;4.256;2023-06-22T06:06:31;101952.72;;;24.92;51.05
48517;BME280;34310;51.904;4.256;2023-06-22T06:08:59;101949.13;;;24.90;50.67
48517;BME280;34310;51.904;4.256;2023-06-22T06:11:27;101951.81;;;24.91;50.94
48517;BME280;34310;51.904;4.256;2023-06-22T06:13:54;101949.19;;;24.91;50.92
48517;BME280;34310;51.904;4.256;2023-06-22T06:16:22;101950.91;;;24.91;50.83
48517;BME280;34310;51.904;4.256;2023-06-22T06:18:50;101947.38;;;24.90;51.02
48517;BME280;34310;51.904;4.256;2023-06-22T06:21:17;101948.28;;;24.91;50.95
48517;BME280;34310;51.904;4.256;2023-06-22T06:23:45;101943.00;;;24.91;50.71
48517;BME280;34310;51.904;4.256;2023-06-22T06:26:12;101945.63;;;24.91;50.99
48517;BME280;34310;51.904;4.256;2023-06-22T06:28:39;101937.72;;;24.91;50.83
48517;BME280;34310;51.904;4.256;2023-06-22T06:31:08;101941.94;;;24.86;51.37
48517;BME280;34310;51.904;4.256;2023-06-22T06:33:36;101932.22;;;24.85;51.45
48517;BME280;34310;51.904;4.256;2023-06-22T06:36:04;101931.31;;;24.84;51.45
48517;BME280;34310;51.904;4.256;2023-06-22T06:38:31;101934.81;;;24.83;51.56
48517;BME280;34310;51.904;4.256;2023-06-22T06:40:59;101938.34;;;24.84;51.55
48517;BME280;34310;51.904;4.256;2023-06-22T06:43:26;101935.72;;;24.84;51.67
48517;BME280;34310;51.904;4.256;2023-06-22T06:45:54;101934.81;;;24.83;51.40
48517;BME280;34310;51.904;4.256;2023-06-22T06:48:21;101924.25;;;24.83;51.36
48517;BME280;34310;51.904;4.256;2023-06-22T06:50:49;101936.56;;;24.83;51.69
48517;BME280;34310;51.904;4.256;2023-06-22T06:53:17;101926.84;;;24.82;51.69
48517;BME280;34310;51.904;4.256;2023-06-22T06:55:44;101918.91;;;24.82;51.50
48517;BME280;34310;51.904;4.256;2023-06-22T06:58:12;101925.09;;;24.82;51.56
48517;BME280;34310;51.904;4.256;2023-06-22T07:00:40;101929.50;;;24.82;51.55
48517;BME280;34310;51.904;4.256;2023-06-22T07:03:08;101917.19;;;24.82;51.62
48517;BME280;34310;51.904;4.256;2023-06-22T07:05:35;101924.19;;;24.82;51.57
48517;BME280;34310;51.904;4.256;2023-06-22T07:08:03;101918.06;;;24.83;51.76
48517;BME280;34310;51.904;4.256;2023-06-22T07:10:30;101915.44;;;24.83;51.56
48517;BME280;34310;51.904;4.256;2023-06-22T07:12:58;101915.44;;;24.83;51.54
48517;BME280;34310;51.904;4.256;2023-06-22T07:15:25;101909.28;;;24.84;51.69
48517;BME280;34310;51.904;4.256;2023-06-22T07:17:53;101904.00;;;24.84;51.60
48517;BME280;34310;51.904;4.256;2023-06-22T07:20:20;101904.06;;;24.85;51.60
48517;BME280;34310;51.904;4.256;2023-06-22T07:22:47;101903.19;;;24.86;51.76
48517;BME280;34310;51.904;4.256;2023-06-22T07:25:14;101904.06;;;24.85;51.61
48517;BME280;34310;51.904;4.256;2023-06-22T07:28:03;101902.38;;;24.87;51.45
48517;BME280;34310;51.904;4.256;2023-06-22T07:30:32;101901.53;;;24.88;51.70
48517;BME280;34310;51.904;4.256;2023-06-22T07:33:01;101891.88;;;24.89;51.57
48517;BME280;34310;51.904;4.256;2023-06-22T07:35:36;101885.69;;;24.88;51.66
48517;BME280;34310;51.904;4.256;2023-06-22T07:38:03;101877.75;;;24.88;51.64
48517;BME280;34310;51.904;4.256;2023-06-22T07:40:32;101880.44;;;24.90;51.69
48517;BME280;34310;51.904;4.256;2023-06-22T07:43:01;101885.72;;;24.90;51.44
48517;BME280;34310;51.904;4.256;2023-06-22T07:45:29;101881.38;;;24.92;51.37
48517;BME280;34310;51.904;4.256;2023-06-22T07:47:56;101884.03;;;24.92;51.69
48517;BME280;34310;51.904;4.256;2023-06-22T07:50:24;101878.78;;;24.93;51.55
48517;BME280;34310;51.904;4.256;2023-06-22T07:52:51;101873.50;;;24.93;51.47
48517;BME280;34310;51.904;4.256;2023-06-22T07:55:19;101871.78;;;24.95;51.52
48517;BME280;34310;51.904;4.256;2023-06-22T07:57:48;101875.31;;;24.96;51.67
48517;BME280;34310;51.904;4.256;2023-06-22T08:00:16;101871.78;;;24.95;51.39
48517;BME280;34310;51.904;4.256;2023-06-22T08:02:45;101870.09;;;24.97;51.52
48517;BME280;34310;51.904;4.256;2023-06-22T08:05:15;101865.69;;;24.98;51.48
48517;BME280;34310;51.904;4.256;2023-06-22T08:07:49;101864.88;;;24.99;51.50
48517;BME280;34310;51.904;4.256;2023-06-22T08:10:18;101864.03;;;25.00;51.28
48517;BME280;34310;51.904;4.256;2023-06-22T08:12:46;101860.53;;;25.01;51.31
48517;BME280;34310;51.904;4.256;2023-06-22T08:15:13;101864.06;;;25.01;51.65
48517;BME280;34310;51.904;4.256;2023-06-22T08:17:41;101864.09;;;25.03;51.67
48517;BME280;34310;51.904;4.256;2023-06-22T08:20:09;101856.22;;;25.05;51.34
48517;BME280;34310;51.904;4.256;2023-06-22T08:22:37;101850.94;;;25.05;51.59
48517;BME280;34310;51.904;4.256;2023-06-22T08:25:06;101854.50;;;25.07;51.55
48517;BME280;34310;51.904;4.256;2023-06-22T08:27:33;101856.31;;;25.08;51.55
48517;BME280;34310;51.904;4.256;2023-06-22T08:30:01;101856.34;;;25.09;51.51
48517;BME280;34310;51.904;4.256;2023-06-22T08:32:29;101860.78;;;25.10;51.30
48517;BME280;34310;51.904;4.256;2023-06-22T08:34:58;101853.75;;;25.11;51.38
48517;BME280;34310;51.904;4.256;2023-06-22T08:37:25;101852.00;;;25.11;51.20
48517;BME280;34310;51.904;4.256;2023-06-22T08:40:00;101858.22;;;25.13;51.46
48517;BME280;34310;51.904;4.256;2023-06-22T08:42:36;101847.69;;;25.15;51.45
48517;BME280;34310;51.904;4.256;2023-06-22T08:45:04;101846.63;;;25.08;51.20
48517;BME280;34310;51.904;4.256;2023-06-22T08:47:31;101850.41;;;25.16;51.46
48517;BME280;34310;51.904;4.256;2023-06-22T08:49:59;101856.59;;;25.17;51.21
48517;BME280;34310;51.904;4.256;2023-06-22T08:52:26;101857.50;;;25.19;51.30
48517;BME280;34310;51.904;4.256;2023-06-22T08:54:54;101856.66;;;25.20;51.33
48517;BME280;34310;51.904;4.256;2023-06-22T08:57:22;101841.69;;;25.20;51.31
48517;BME280;34310;51.904;4.256;2023-06-22T08:59:49;101846.13;;;25.21;51.29
48517;BME280;34310;51.904;4.256;2023-06-22T09:02:19;101840.88;;;25.23;51.33
48517;BME280;34310;51.904;4.256;2023-06-22T09:04:47;101841.78;;;25.23;51.28
48517;BME280;34310;51.904;4.256;2023-06-22T09:07:16;101837.38;;;25.24;51.21
48517;BME280;34310;51.904;4.256;2023-06-22T09:09:50;101840.09;;;25.27;51.40
48517;BME280;34310;51.904;4.256;2023-06-22T09:12:19;101843.66;;;25.27;51.29
48517;BME280;34310;51.904;4.256;2023-06-22T09:14:47;101844.53;;;25.28;51.31
48517;BME280;34310;51.904;4.256;2023-06-22T09:17:14;101843.69;;;25.29;51.40
48517;BME280;34310;51.904;4.256;2023-06-22T09:19:42;101836.66;;;25.29;51.30
48517;BME280;34310;51.904;4.256;2023-06-22T09:22:09;101832.28;;;25.31;51.14
48517;BME280;34310;51.904;4.256;2023-06-22T09:24:36;101835.84;;;25.32;51.30
48517;BME280;34310;51.904;4.256;2023-06-22T09:27:04;101836.75;;;25.34;51.14
48517;BME280;34310;51.904;4.256;2023-06-22T09:29:31;101835.00;;;25.35;51.16
48517;BME280;34310;51.904;4.256;2023-06-22T09:32:02;101826.22;;;25.36;51.24
48517;BME280;34310;51.904;4.256;2023-06-22T09:34:30;101820.97;;;25.37;50.98
48517;BME280;34310;51.904;4.256;2023-06-22T09:36:58;101819.22;;;25.38;50.99
48517;BME280;34310;51.904;4.256;2023-06-22T09:39:28;101815.72;;;25.39;51.03
48517;BME280;34310;51.904;4.256;2023-06-22T09:41:55;101809.59;;;25.40;50.95
48517;BME280;34310;51.904;4.256;2023-06-22T09:44:22;101808.72;;;25.41;51.14
48517;BME280;34310;51.904;4.256;2023-06-22T09:46:50;101807.88;;;25.42;50.96
48517;BME280;34310;51.904;4.256;2023-06-22T09:49:17;101805.25;;;25.43;51.13
48517;BME280;34310;51.904;4.256;2023-06-22T09:51:54;101803.50;;;25.44;51.06
48517;BME280;34310;51.904;4.256;2023-06-22T09:54:21;101807.97;;;25.45;51.05
48517;BME280;34310;51.904;4.256;2023-06-22T09:56:48;101807.13;;;25.46;50.80
48517;BME280;34310;51.904;4.256;2023-06-22T09:59:16;101809.75;;;25.46;50.77
48517;BME280;34310;51.904;4.256;2023-06-22T10:01:45;101812.44;;;25.47;50.75
48517;BME280;34310;51.904;4.256;2023-06-22T10:04:12;101815.09;;;25.47;51.00
48517;BME280;34310;51.904;4.256;2023-06-22T10:06:40;101819.53;;;25.48;51.00
48517;BME280;34310;51.904;4.256;2023-06-22T10:09:08;101818.69;;;25.51;50.84
48517;BME280;34310;51.904;4.256;2023-06-22T10:11:36;101825.78;;;25.52;50.96
48517;BME280;34310;51.904;4.256;2023-06-22T10:14:04;101815.22;;;25.52;51.08
48517;BME280;34310;51.904;4.256;2023-06-22T10:16:32;101821.41;;;25.54;50.85
48517;BME280;34310;51.904;4.256;2023-06-22T10:19:00;101810.84;;;25.54;50.89
48517;BME280;34310;51.904;4.256;2023-06-22T10:21:27;101818.81;;;25.55;50.63
48517;BME280;34310;51.904;4.256;2023-06-22T10:23:55;101820.59;;;25.56;50.79
48517;BME280;34310;51.904;4.256;2023-06-22T10:26:23;101821.50;;;25.57;50.86
48517;BME280;34310;51.904;4.256;2023-06-22T10:28:50;101817.13;;;25.59;50.57
48517;BME280;34310;51.904;4.256;2023-06-22T10:31:37;101816.28;;;25.60;50.63
48517;BME280;34310;51.904;4.256;2023-06-22T10:34:05;101816.25;;;25.58;50.85
48517;BME280;34310;51.904;4.256;2023-06-22T10:36:32;101818.94;;;25.60;50.53
48517;BME280;34310;51.904;4.256;2023-06-22T10:38:59;101817.19;;;25.60;50.87
48517;BME280;34310;51.904;4.256;2023-06-22T10:41:28;101822.50;;;25.62;50.82
48517;BME280;34310;51.904;4.256;2023-06-22T10:43:59;101822.50;;;25.62;50.65
48517;BME280;34310;51.904;4.256;2023-06-22T10:46:26;101820.75;;;25.62;50.62
48517;BME280;34310;51.904;4.256;2023-06-22T10:48:55;101821.66;;;25.63;50.78
48517;BME280;34310;51.904;4.256;2023-06-22T10:51:24;101830.47;;;25.63;50.75
48517;BME280;34310;51.904;4.256;2023-06-22T10:53:52;101834.00;;;25.64;50.50
48517;BME280;34310;51.904;4.256;2023-06-22T10:56:20;101828.72;;;25.64;50.71
48517;BME280;34310;51.904;4.256;2023-06-22T10:58:47;101829.63;;;25.64;50.51
48517;BME280;34310;51.904;4.256;2023-06-22T11:01:14;101822.56;;;25.65;50.57
48517;BME280;34310;51.904;4.256;2023-06-22T11:04:01;101829.66;;;25.66;50.43
48517;BME280;34310;51.904;4.256;2023-06-22T11:06:29;101824.31;;;25.64;50.45
48517;BME280;34310;51.904;4.256;2023-06-22T11:08:56;101826.13;;;25.66;50.68
48517;BME280;34310;51.904;4.256;2023-06-22T11:11:43;101827.06;;;25.68;50.44
48517;BME280;34310;51.904;4.256;2023-06-22T11:14:11;101828.81;;;25.67;50.58
48517;BME280;34310;51.904;4.256;2023-06-22T11:16:38;101827.94;;;25.67;50.70
48517;BME280;34310;51.904;4.256;2023-06-22T11:19:06;101819.13;;;25.68;50.59
48517;BME280;34310;51.904;4.256;2023-06-22T11:21:33;101816.50;;;25.68;50.59
48517;BME280;34310;51.904;4.256;2023-06-22T11:24:01;101820.94;;;25.69;50.62
48517;BME280;34310;51.904;4.256;2023-06-22T11:26:28;101811.22;;;25.68;50.57
48517;BME280;34310;51.904;4.256;2023-06-22T11:28:56;101809.47;;;25.68;50.76
48517;BME280;34310;51.904;4.256;2023-06-22T11:31:23;101805.06;;;25.69;50.52
48517;BME280;34310;51.904;4.256;2023-06-22T11:33:53;101797.13;;;25.69;50.54
48517;BME280;34310;51.904;4.256;2023-06-22T11:36:20;101798.91;;;25.70;50.41
48517;BME280;34310;51.904;4.256;2023-06-22T11:38:48;101792.72;;;25.69;50.44
48517;BME280;34310;51.904;4.256;2023-06-22T11:41:15;101789.22;;;25.70;50.42
48517;BME280;34310;51.904;4.256;2023-06-22T11:43:43;101787.44;;;25.69;50.63
48517;BME280;34310;51.904;4.256;2023-06-22T11:46:11;101783.03;;;25.70;50.50
48517;BME280;34310;51.904;4.256;2023-06-22T11:48:38;101787.47;;;25.71;50.62
48517;BME280;34310;51.904;4.256;2023-06-22T11:51:06;101784.88;;;25.72;50.30
48517;BME280;34310;51.904;4.256;2023-06-22T11:53:35;101775.09;;;25.70;50.33
48517;BME280;34310;51.904;4.256;2023-06-22T11:56:02;101770.72;;;25.70;50.41
48517;BME280;34310;51.904;4.256;2023-06-22T11:58:30;101764.53;;;25.70;50.38
48517;BME280;34310;51.904;4.256;2023-06-22T12:00:57;101765.41;;;25.70;50.37
48517;BME280;34310;51.904;4.256;2023-06-22T12:03:24;101761.03;;;25.71;50.58
48517;BME280;34310;51.904;4.256;2023-06-22T12:05:52;101762.81;;;25.72;50.36
48517;BME280;34310;51.904;4.256;2023-06-22T12:08:19;101761.03;;;25.71;50.42
48517;BME280;34310;51.904;4.256;2023-06-22T12:10:47;101755.72;;;25.71;50.63
48517;BME280;34310;51.904;4.256;2023-06-22T12:13:15;101758.41;;;25.72;50.52
48517;BME280;34310;51.904;4.256;2023-06-22T12:15:43;101750.44;;;25.71;50.57
48517;BME280;34310;51.904;4.256;2023-06-22T12:18:10;101746.00;;;25.70;50.37
48517;BME280;34310;51.904;4.256;2023-06-22T12:20:38;101750.44;;;25.71;50.63
48517;BME280;34310;51.904;4.256;2023-06-22T12:23:05;101739.00;;;25.72;50.40
48517;BME280;34310;51.904;4.256;2023-06-22T12:25:32;101745.16;;;25.71;50.38
48517;BME280;34310;51.904;4.256;2023-06-22T12:28:00;101736.34;;;25.72;50.59
48517;BME280;34310;51.904;4.256;2023-06-22T12:30:27;101735.47;;;25.71;50.64
48517;BME280;34310;51.904;4.256;2023-06-22T12:32:55;101733.72;;;25.72;50.73
48517;BME280;34310;51.904;4.256;2023-06-22T12:35:23;101731.97;;;25.72;50.50
48517;BME280;34310;51.904;4.256;2023-06-22T12:37:51;101739.84;;;25.71;50.57
48517;BME280;34310;51.904;4.256;2023-06-22T12:40:18;101736.38;;;25.73;50.37
48517;BME280;34310;51.904;4.256;2023-06-22T12:42:46;101738.16;;;25.73;50.57
48517;BME280;34310;51.904;4.256;2023-06-22T12:45:13;101727.56;;;25.73;50.63
48517;BME280;34310;51.904;4.256;2023-06-22T12:47:41;101733.75;;;25.73;50.75
48517;BME280;34310;51.904;4.256;2023-06-22T12:50:08;101733.75;;;25.73;50.69
48517;BME280;34310;51.904;4.256;2023-06-22T12:52:37;101731.16;;;25.75;50.41
48517;BME280;34310;51.904;4.256;2023-06-22T12:55:08;101732.91;;;25.74;50.45
48517;BME280;34310;51.904;4.256;2023-06-22T12:57:36;101732.84;;;25.73;50.59
48517;BME280;34310;51.904;4.256;2023-06-22T13:00:03;101732.91;;;25.74;50.59
48517;BME280;34310;51.904;4.256;2023-06-22T13:02:32;101726.66;;;25.72;50.38
48517;BME280;34310;51.904;4.256;2023-06-22T13:04:59;101732.03;;;25.74;50.59
48517;BME280;34310;51.904;4.256;2023-06-22T13:07:27;101730.28;;;25.74;50.69
48517;BME280;34310;51.904;4.256;2023-06-22T13:09:54;101724.91;;;25.73;50.55
48517;BME280;34310;51.904;4.256;2023-06-22T13:12:22;101721.38;;;25.72;50.68
48517;BME280;34310;51.904;4.256;2023-06-22T13:14:50;101729.38;;;25.74;50.56